createdAt,value
2022-08-22T00:00:43.717Z,101411.25
2022-08-22T00:02:45.174Z,101227.44
2022-08-22T00:02:46.943Z,101343.78
2022-08-22T00:03:15.594Z,101386.03
2022-08-22T00:03:29.163Z,101411.28
2022-08-22T00:06:09.306Z,101412.88
2022-08-22T00:08:47.152Z,101418.38
2022-08-22T00:11:25.933Z,101427.34
2022-08-22T00:14:02.168Z,101417.53
2022-08-22T00:16:36.339Z,101409.59
2022-08-22T00:19:18.245Z,101413.91
2022-08-22T00:21:52.525Z,101418.28
2022-08-22T00:24:30.201Z,101420.13
2022-08-22T00:27:04.569Z,101416.59
2022-08-22T00:29:39.772Z,101419.19
2022-08-22T00:32:13.951Z,101415.41
2022-08-22T00:34:52.240Z,101411.31
2022-08-22T00:37:27.428Z,101421.97
2022-08-22T00:40:04.002Z,101420.25
2022-08-22T00:43:07.527Z,101413.22
2022-08-22T00:46:08.967Z,101413.22
2022-08-22T00:49:01.162Z,101427.31
2022-08-22T00:52:05.879Z,101425.69
2022-08-22T00:54:57.451Z,101432.63
2022-08-22T00:57:42.678Z,101431.56
2022-08-22T01:00:16.494Z,101432.47
2022-08-22T01:03:11.336Z,101430.78
2022-08-22T01:05:54.219Z,101437.78
2022-08-22T01:08:40.696Z,101442.09
2022-08-22T01:11:29.489Z,101443.97
2022-08-22T01:14:14.653Z,101446.84
2022-08-22T01:17:18.266Z,101448.53
2022-08-22T01:20:20.119Z,101439.69
2022-08-22T01:23:35.518Z,101445.03
2022-08-22T01:26:44.708Z,101437.84
2022-08-22T01:29:45.442Z,101445.72
2022-08-22T01:33:07.369Z,101452.06
2022-08-22T01:36:11.504Z,101448.44
2022-08-22T01:39:01.005Z,101450.28
2022-08-22T01:42:12.747Z,101455.38
2022-08-22T01:45:11.872Z,101453.84
2022-08-22T01:47:49.112Z,101453.00
2022-08-22T01:50:26.758Z,101458.59
2022-08-22T01:53:03.847Z,101462.13
2022-08-22T01:55:37.208Z,101462.03
2022-08-22T01:58:17.088Z,101461.03
2022-08-22T02:01:10.130Z,101470.69
2022-08-22T02:03:44.983Z,101471.50
2022-08-22T02:06:22.798Z,101479.56
2022-08-22T02:09:00.787Z,101470.69
2022-08-22T02:11:39.947Z,101466.25
2022-08-22T02:14:18.991Z,101469.06
2022-08-22T02:16:52.037Z,101478.81
2022-08-22T02:19:28.057Z,101481.44
2022-08-22T02:22:01.334Z,101478.78
2022-08-22T02:24:46.279Z,101480.44
2022-08-22T02:27:25.419Z,101484.81
2022-08-22T02:30:05.595Z,101482.28
2022-08-22T02:32:51.086Z,101492.06
2022-08-22T02:35:26.781Z,101480.50
2022-08-22T02:38:07.310Z,101482.09
2022-08-22T02:40:42.656Z,101473.34
2022-08-22T02:43:20.194Z,101478.66
2022-08-22T02:45:54.755Z,101484.59
2022-08-22T02:48:35.703Z,101490.06
2022-08-22T02:51:15.942Z,101460.88
2022-08-22T02:53:53.281Z,101488.47
2022-08-22T02:56:31.764Z,101488.38
2022-08-22T02:59:13.657Z,101485.75
2022-08-22T03:01:44.275Z,101486.63
2022-08-22T03:04:47.137Z,101453.44
2022-08-22T03:07:28.036Z,101492.91
2022-08-22T03:10:04.783Z,101485.81
2022-08-22T03:12:44.944Z,101485.75
2022-08-22T03:15:21.780Z,101489.41
2022-08-22T03:17:57.349Z,101492.97
2022-08-22T03:20:42.730Z,101492.22
2022-08-22T03:23:21.891Z,101502.84
2022-08-22T03:25:59.731Z,101503.81
2022-08-22T03:28:37.377Z,101499.34
2022-08-22T03:31:14.532Z,101494.28
2022-08-22T03:33:43.155Z,101514.59
2022-08-22T03:36:27.036Z,101513.00
2022-08-22T03:39:17.575Z,101513.19
2022-08-22T03:42:23.101Z,101520.38
2022-08-22T03:45:24.609Z,101513.47
2022-08-22T03:48:21.452Z,101516.13
2022-08-22T03:51:13.205Z,101524.09
2022-08-22T03:54:16.910Z,101519.75
2022-08-22T03:57:19.325Z,101520.63
2022-08-22T04:00:07.714Z,101524.13
2022-08-22T04:03:00.869Z,101508.38
2022-08-22T04:06:01.194Z,101530.25
2022-08-22T04:08:53.106Z,101532.06
2022-08-22T04:11:44.493Z,101531.13
2022-08-22T04:14:36.318Z,101531.19
2022-08-22T04:17:37.032Z,101534.94
2022-08-22T04:20:35.882Z,101543.75
2022-08-22T04:23:28.808Z,101556.13
2022-08-22T04:26:00.765Z,101550.88
2022-08-22T04:28:43.225Z,101558.09
2022-08-22T04:31:14.484Z,101552.88
2022-08-22T04:33:48.555Z,101555.47
2022-08-22T04:36:24.877Z,101559.94
2022-08-22T04:39:01.295Z,101559.94
2022-08-22T04:41:38.352Z,101561.75
2022-08-22T04:44:13.437Z,101574.94
2022-08-22T04:46:48.525Z,101572.31
2022-08-22T04:49:24.680Z,101575.78
2022-08-22T04:52:11.556Z,101576.66
2022-08-22T04:54:55.505Z,101578.38
2022-08-22T04:57:32.734Z,101582.72
2022-08-22T05:00:02.507Z,101581.63
2022-08-22T05:02:31.287Z,101587.59
2022-08-22T05:05:04.512Z,101580.47
2022-08-22T05:07:43.401Z,101570.75
2022-08-22T05:10:18.715Z,101601.47
2022-08-22T05:12:51.850Z,101612.16
2022-08-22T05:15:23.569Z,101608.41
2022-08-22T05:17:55.085Z,101608.47
2022-08-22T05:20:27.188Z,101611.69
2022-08-22T05:23:16.972Z,101618.78
2022-08-22T05:25:51.749Z,101615.88
2022-08-22T05:28:33.764Z,101615.03
2022-08-22T05:31:08.314Z,101629.00
2022-08-22T05:33:42.625Z,101625.28
2022-08-22T05:36:14.823Z,101627.81
2022-08-22T05:38:49.464Z,101631.50
2022-08-22T05:41:25.103Z,101633.06
2022-08-22T05:43:54.535Z,101632.19
2022-08-22T05:46:26.962Z,101644.66
2022-08-22T05:49:00.083Z,101646.50
2022-08-22T05:51:40.780Z,101633.28
2022-08-22T05:54:15.589Z,101642.16
2022-08-22T05:56:49.890Z,101629.00
2022-08-22T05:59:26.293Z,101639.47
2022-08-22T06:02:03.805Z,101644.66
2022-08-22T06:04:38.002Z,101646.53
2022-08-22T06:07:10.698Z,101640.41
2022-08-22T06:10:03.885Z,101654.38
2022-08-22T06:12:37.858Z,101657.94
2022-08-22T06:15:14.154Z,101656.88
2022-08-22T06:17:45.741Z,101670.25
2022-08-22T06:20:19.595Z,101671.03
2022-08-22T06:22:53.002Z,101667.50
2022-08-22T06:25:26.344Z,101649.88
2022-08-22T06:27:58.358Z,101660.28
2022-08-22T06:30:29.975Z,101665.63
2022-08-22T06:33:03.890Z,101667.28
2022-08-22T06:35:51.663Z,101662.16
2022-08-22T06:38:21.670Z,101670.84
2022-08-22T06:40:51.132Z,101667.03
2022-08-22T06:43:21.828Z,101672.19
2022-08-22T06:45:51.296Z,101677.78
2022-08-22T06:48:22.024Z,101677.00
2022-08-22T06:50:54.815Z,101690.13
2022-08-22T06:53:26.810Z,101691.78
2022-08-22T06:55:57.495Z,101692.53
2022-08-22T06:58:32.319Z,101700.50
2022-08-22T07:01:11.683Z,101694.28
2022-08-22T07:03:46.227Z,101693.34
2022-08-22T07:06:17.135Z,101686.16
2022-08-22T07:08:45.582Z,101692.31
2022-08-22T07:11:22.263Z,101693.13
2022-08-22T07:13:59.945Z,101662.91
2022-08-22T07:16:33.136Z,101686.81
2022-08-22T07:19:01.877Z,101692.81
2022-08-22T07:21:41.518Z,101698.28
2022-08-22T07:24:12.051Z,101703.88
2022-08-22T07:26:51.702Z,101703.56
2022-08-22T07:29:30.026Z,101700.72
2022-08-22T07:32:11.524Z,101699.75
2022-08-22T07:34:53.605Z,101697.84
2022-08-22T07:37:32.482Z,101711.63
2022-08-22T07:40:07.733Z,101707.88
2022-08-22T07:42:44.615Z,101713.38
2022-08-22T07:45:22.091Z,101711.44
2022-08-22T07:48:04.810Z,101725.44
2022-08-22T07:50:38.163Z,101726.25
2022-08-22T07:53:15.708Z,101721.72
2022-08-22T07:55:49.596Z,101694.94
2022-08-22T07:58:19.651Z,101723.13
2022-08-22T08:00:51.780Z,101721.28
2022-08-22T08:03:23.723Z,101723.28
2022-08-22T08:05:52.120Z,101724.78
2022-08-22T08:08:25.102Z,101732.53
2022-08-22T08:10:56.297Z,101730.06
2022-08-22T08:13:30.211Z,101728.59
2022-08-22T08:16:00.610Z,101723.81
2022-08-22T08:18:34.143Z,101729.75
2022-08-22T08:21:06.162Z,101718.78
2022-08-22T08:23:43.039Z,101717.94
2022-08-22T08:26:17.335Z,101730.13
2022-08-22T08:28:46.531Z,101724.06
2022-08-22T08:31:23.872Z,101720.78
2022-08-22T08:33:59.276Z,101717.78
2022-08-22T08:36:46.286Z,101728.69
2022-08-22T08:39:25.311Z,101729.97
2022-08-22T08:42:28.250Z,101741.41
2022-08-22T08:45:11.060Z,101740.31
2022-08-22T08:48:03.627Z,101742.47
2022-08-22T08:50:47.547Z,101738.28
2022-08-22T08:53:35.474Z,101744.75
2022-08-22T08:56:08.504Z,101750.00
2022-08-22T08:58:44.396Z,101746.38
2022-08-22T09:01:27.477Z,101752.22
2022-08-22T09:04:32.043Z,101745.19
2022-08-22T09:07:40.602Z,101748.63
2022-08-22T09:13:41.879Z,101752.94
2022-08-22T09:20:22.579Z,101759.19
2022-08-22T09:23:25.944Z,101761.91
2022-08-22T09:26:01.313Z,101760.97
2022-08-22T09:28:38.714Z,101743.66
2022-08-22T09:31:32.804Z,101738.25
2022-08-22T09:34:24.246Z,101761.16
2022-08-22T09:37:14.234Z,101767.50
2022-08-22T09:39:55.545Z,101766.84
2022-08-22T09:42:32.925Z,101768.81
2022-08-22T09:45:38.949Z,101751.38
2022-08-22T09:48:26.680Z,101769.19
2022-08-22T09:51:26.668Z,101769.00
2022-08-22T09:54:06.828Z,101773.22
2022-08-22T09:56:39.652Z,101776.28
2022-08-22T09:59:14.812Z,101773.34
2022-08-22T10:01:51.333Z,101784.66
2022-08-22T10:04:46.194Z,101788.13
2022-08-22T10:07:38.859Z,101782.72
2022-08-22T10:10:24.535Z,101720.81
2022-08-22T10:13:00.810Z,101786.94
2022-08-22T10:15:38.221Z,101763.91
2022-08-22T10:18:19.486Z,101788.47
2022-08-22T10:21:03.278Z,101791.88
2022-08-22T10:23:39.867Z,101795.50
2022-08-22T10:26:22.695Z,101782.06
2022-08-22T10:28:58.307Z,101769.69
2022-08-22T10:31:46.053Z,101791.63
2022-08-22T10:34:31.836Z,101802.16
2022-08-22T10:37:11.230Z,101794.84
2022-08-22T10:39:47.966Z,101802.72
2022-08-22T10:42:28.508Z,101808.78
2022-08-22T10:45:35.078Z,101786.09
2022-08-22T10:48:35.804Z,101801.19
2022-08-22T10:51:19.517Z,101775.38
2022-08-22T10:54:00.265Z,101811.41
2022-08-22T10:56:34.091Z,101794.16
2022-08-22T10:59:16.490Z,101809.16
2022-08-22T11:01:52.486Z,101802.56
2022-08-22T11:04:39.260Z,101812.25
2022-08-22T11:07:21.412Z,101793.91
2022-08-22T11:09:59.383Z,101814.91
2022-08-22T11:12:37.327Z,101814.28
2022-08-22T11:15:28.253Z,101815.75
2022-08-22T11:18:21.787Z,101812.75
2022-08-22T11:21:01.011Z,101812.75
2022-08-22T11:23:44.802Z,101811.25
2022-08-22T11:26:33.610Z,101821.69
2022-08-22T11:29:34.840Z,101814.75
2022-08-22T11:32:12.992Z,101808.22
2022-08-22T11:34:54.166Z,101807.63
2022-08-22T11:37:44.352Z,101808.16
2022-08-22T11:40:34.364Z,101796.03
2022-08-22T11:43:17.340Z,101819.97
2022-08-22T11:45:49.929Z,101809.84
2022-08-22T11:48:25.768Z,101809.84
2022-08-22T11:51:13.327Z,101817.16
2022-08-22T11:53:48.714Z,101820.41
2022-08-22T11:56:27.004Z,101825.94
2022-08-22T11:59:00.742Z,101817.16
2022-08-22T12:01:37.569Z,101826.28
2022-08-22T12:04:15.348Z,101823.28
2022-08-22T12:06:51.752Z,101820.28
2022-08-22T12:09:32.116Z,101821.31
2022-08-22T12:12:18.140Z,101828.16
2022-08-22T12:14:55.547Z,101816.81
2022-08-22T12:18:01.433Z,101823.91
2022-08-22T12:21:00.915Z,101822.19
2022-08-22T12:24:06.167Z,101814.97
2022-08-22T12:26:51.076Z,101827.38
2022-08-22T12:29:44.776Z,101825.72
2022-08-22T12:32:45.741Z,101827.09
2022-08-22T12:35:30.256Z,101815.22
2022-08-22T12:38:28.549Z,101824.25
2022-08-22T12:41:27.993Z,101820.53
2022-08-22T12:44:17.232Z,101821.91
2022-08-22T12:46:56.035Z,101828.88
2022-08-22T12:49:42.627Z,101820.66
2022-08-22T12:52:33.153Z,101835.22
2022-08-22T12:55:24.910Z,101820.50
2022-08-22T12:58:02.394Z,101817.91
2022-08-22T13:00:34.824Z,101816.94
2022-08-22T13:03:07.343Z,101818.56
2022-08-22T13:05:41.050Z,101808.09
2022-08-22T13:08:13.902Z,101812.41
2022-08-22T13:10:51.917Z,101811.50
2022-08-22T13:13:37.126Z,101799.53
2022-08-22T13:16:09.295Z,101810.03
2022-08-22T13:18:46.884Z,101794.00
2022-08-22T13:21:31.390Z,101797.69
2022-08-22T13:24:10.528Z,101805.75
2022-08-22T13:26:48.999Z,101791.56
2022-08-22T13:29:26.784Z,101808.50
2022-08-22T13:32:00.601Z,101799.44
2022-08-22T13:34:39.975Z,101803.63
2022-08-22T13:37:15.194Z,101794.53
2022-08-22T13:39:47.133Z,101783.59
2022-08-22T13:42:30.300Z,101787.31
2022-08-22T13:45:02.851Z,101793.72
2022-08-22T13:47:35.847Z,101801.66
2022-08-22T13:50:14.748Z,101797.44
2022-08-22T13:52:52.337Z,101782.19
2022-08-22T13:55:30.255Z,101791.03
2022-08-22T13:58:06.959Z,101799.19
2022-08-22T14:01:07.998Z,101812.72
2022-08-22T14:03:42.149Z,101802.66
2022-08-22T14:06:37.044Z,101810.72
2022-08-22T14:09:14.886Z,101809.97
2022-08-22T14:11:50.288Z,101811.31
2022-08-22T14:14:28.129Z,101811.69
2022-08-22T14:17:00.632Z,101815.00
2022-08-22T14:19:52.946Z,101804.38
2022-08-22T14:22:32.509Z,101790.66
2022-08-22T14:25:08.849Z,101813.16
2022-08-22T14:27:40.007Z,101809.47
2022-08-22T14:30:19.039Z,101809.75
2022-08-22T14:32:51.765Z,101808.00
2022-08-22T14:35:35.307Z,101812.47
2022-08-22T14:38:30.002Z,101818.88
2022-08-22T14:41:09.230Z,101806.63
2022-08-22T14:43:49.417Z,101799.66
2022-08-22T14:46:27.528Z,101812.94
2022-08-22T14:49:29.586Z,101807.50
2022-08-22T14:52:04.151Z,101807.41
2022-08-22T14:54:36.116Z,101809.16
2022-08-22T14:57:10.388Z,101811.41
2022-08-22T14:59:50.051Z,101791.34
2022-08-22T15:02:29.307Z,101798.78
2022-08-22T15:05:01.599Z,101803.53
2022-08-22T15:07:34.943Z,101803.22
2022-08-22T15:10:07.481Z,101801.97
2022-08-22T15:12:46.800Z,101796.72
2022-08-22T15:15:30.439Z,101804.34
2022-08-22T15:18:00.920Z,101798.97
2022-08-22T15:20:36.272Z,101795.75
2022-08-22T15:23:16.280Z,101787.25
2022-08-22T15:25:47.282Z,101795.00
2022-08-22T15:28:20.857Z,101794.25
2022-08-22T15:31:00.033Z,101789.25
2022-08-22T15:33:35.988Z,101787.84
2022-08-22T15:36:15.847Z,101771.53
2022-08-22T15:38:48.202Z,101781.66
2022-08-22T15:41:45.083Z,101779.91
2022-08-22T15:44:30.816Z,101786.41
2022-08-22T15:47:06.185Z,101783.44
2022-08-22T15:49:51.885Z,101785.19
2022-08-22T15:52:28.501Z,101792.03
2022-08-22T15:55:20.678Z,101788.72
2022-08-22T15:58:09.378Z,101786.03
2022-08-22T16:00:45.038Z,101780.56
2022-08-22T16:03:25.173Z,101747.56
2022-08-22T16:05:57.958Z,101786.28
2022-08-22T16:08:32.960Z,101787.69
2022-08-22T16:11:21.913Z,101784.63
2022-08-22T16:14:17.606Z,101796.41
2022-08-22T16:17:09.620Z,101786.91
2022-08-22T16:19:38.285Z,101783.13
2022-08-22T16:22:13.017Z,101782.97
2022-08-22T16:25:10.268Z,101788.19
2022-08-22T16:27:53.357Z,101779.44
2022-08-22T16:30:34.685Z,101751.78
2022-08-22T16:33:04.739Z,101778.16
2022-08-22T16:36:15.561Z,101786.97
2022-08-22T16:38:48.701Z,101783.34
2022-08-22T16:41:32.514Z,101790.59
2022-08-22T16:44:41.877Z,101788.91
2022-08-22T16:47:15.073Z,101785.06
2022-08-22T16:49:58.823Z,101780.97
2022-08-22T16:52:53.444Z,101786.00
2022-08-22T16:55:42.978Z,101788.69
2022-08-22T16:58:19.904Z,101763.34
2022-08-22T17:00:57.871Z,101786.25
2022-08-22T17:03:38.720Z,101794.44
2022-08-22T17:06:26.036Z,101792.84
2022-08-22T17:09:04.488Z,101784.97
2022-08-22T17:11:49.406Z,101787.66
2022-08-22T17:14:28.770Z,101788.34
2022-08-22T17:17:15.470Z,101797.13
2022-08-22T17:19:57.143Z,101803.69
2022-08-22T17:22:34.131Z,101808.94
2022-08-22T17:25:20.494Z,101812.69
2022-08-22T17:27:54.775Z,101796.81
2022-08-22T17:30:26.891Z,101810.69
2022-08-22T17:33:10.971Z,101812.59
2022-08-22T17:35:55.041Z,101816.19
2022-08-22T17:38:35.914Z,101821.59
2022-08-22T17:41:13.275Z,101814.44
2022-08-22T17:43:56.734Z,101825.94
2022-08-22T17:46:35.458Z,101830.53
2022-08-22T17:49:15.547Z,101810.34
2022-08-22T17:51:51.720Z,101813.13
2022-08-22T17:54:29.516Z,101807.63
2022-08-22T17:57:05.875Z,101819.44
2022-08-22T17:59:45.968Z,101815.09
2022-08-22T18:02:20.396Z,101811.66
2022-08-22T18:04:59.393Z,101818.63
2022-08-22T18:07:40.080Z,101820.63
2022-08-22T18:10:21.310Z,101818.84
2022-08-22T18:13:01.417Z,101821.50
2022-08-22T18:15:43.521Z,101822.41
2022-08-22T18:18:23.373Z,101817.31
2022-08-22T18:20:59.040Z,101822.56
2022-08-22T18:23:39.846Z,101838.44
2022-08-22T18:26:21.864Z,101838.66
2022-08-22T18:28:56.067Z,101836.97
2022-08-22T18:31:38.696Z,101840.69
2022-08-22T18:34:20.236Z,101836.19
2022-08-22T18:36:55.651Z,101837.88
2022-08-22T18:39:27.220Z,101845.13
2022-08-22T18:42:03.871Z,101838.97
2022-08-22T18:44:35.244Z,101836.34
2022-08-22T18:47:14.319Z,101832.00
2022-08-22T18:49:54.313Z,101839.03
2022-08-22T18:52:41.734Z,101835.69
2022-08-22T18:55:45.944Z,101838.97
2022-08-22T18:59:05.162Z,101837.34
2022-08-22T19:01:47.615Z,101830.94
2022-08-22T19:04:34.037Z,101838.97
2022-08-22T19:07:21.859Z,101844.47
2022-08-22T19:10:35.708Z,101847.81
2022-08-22T19:13:21.634Z,101846.13
2022-08-22T19:16:02.479Z,101854.91
2022-08-22T19:18:37.447Z,101859.41
2022-08-22T19:21:39.670Z,101863.19
2022-08-22T19:24:11.118Z,101848.91
2022-08-22T19:26:42.874Z,101849.91
2022-08-22T19:30:03.081Z,101851.59
2022-08-22T19:32:59.478Z,101858.69
2022-08-22T19:35:37.313Z,101853.28
2022-08-22T19:38:08.600Z,101862.25
2022-08-22T19:40:56.207Z,101865.72
2022-08-22T19:43:38.840Z,101869.31
2022-08-22T19:46:09.509Z,101865.72
2022-08-22T19:48:47.570Z,101866.97
2022-08-22T19:51:29.792Z,101869.63
2022-08-22T19:54:16.471Z,101869.63
2022-08-22T19:57:10.311Z,101862.53
2022-08-22T20:00:00.373Z,101873.25
2022-08-22T20:02:37.604Z,101873.06
2022-08-22T20:05:27.796Z,101878.78
2022-08-22T20:08:09.218Z,101877.25
2022-08-22T20:10:48.747Z,101884.63
2022-08-22T20:13:22.270Z,101886.53
2022-08-22T20:16:07.488Z,101876.88
2022-08-22T20:19:09.565Z,101883.25
2022-08-22T20:21:46.430Z,101879.75
2022-08-22T20:24:17.629Z,101880.66
2022-08-22T20:27:12.162Z,101881.50
2022-08-22T20:29:39.787Z,101876.47
2022-08-22T20:32:08.630Z,101874.66
2022-08-22T20:34:40.574Z,101881.91
2022-08-22T20:37:32.304Z,101881.94
2022-08-22T20:40:38.031Z,101887.50
2022-08-22T20:43:18.980Z,101883.00
2022-08-22T20:46:03.004Z,101887.31
2022-08-22T20:48:37.628Z,101885.72
2022-08-22T20:51:06.999Z,101887.59
2022-08-22T20:53:35.449Z,101887.59
2022-08-22T20:56:07.292Z,101891.25
2022-08-22T20:58:43.899Z,101894.09
2022-08-22T21:01:13.502Z,101898.50
2022-08-22T21:03:45.652Z,101899.59
2022-08-22T21:06:16.948Z,101870.56
2022-08-22T21:08:46.798Z,101888.19
2022-08-22T21:11:39.843Z,101901.56
2022-08-22T21:14:21.582Z,101899.03
2022-08-22T21:16:50.239Z,101868.91
2022-08-22T21:19:20.185Z,101899.00
2022-08-22T21:21:48.329Z,101900.84
2022-08-22T21:24:16.785Z,101905.34
2022-08-22T21:26:51.041Z,101901.75
2022-08-22T21:29:32.878Z,101904.63
2022-08-22T21:32:24.538Z,101910.97
2022-08-22T21:34:53.649Z,101903.00
2022-08-22T21:37:30.288Z,101911.88
2022-08-22T21:40:03.234Z,101905.66
2022-08-22T21:42:35.788Z,101903.06
2022-08-22T21:45:08.339Z,101916.44
2022-08-22T21:47:38.542Z,101911.13
2022-08-22T21:50:15.741Z,101912.94
2022-08-22T21:52:45.837Z,101920.91
2022-08-22T21:55:16.311Z,101923.66
2022-08-22T21:57:44.941Z,101921.97
2022-08-22T22:00:48.872Z,101917.72
2022-08-22T22:03:20.442Z,101922.13
2022-08-22T22:05:49.593Z,101924.78
2022-08-22T22:08:18.771Z,101931.00
2022-08-22T22:10:49.097Z,101931.91
2022-08-22T22:13:17.805Z,101923.94
2022-08-22T22:15:49.006Z,101926.63
2022-08-22T22:18:19.882Z,101933.69
2022-08-22T22:20:49.719Z,101931.84
2022-08-22T22:23:18.358Z,101926.50
2022-08-22T22:25:47.320Z,101935.34
2022-08-22T22:28:18.356Z,101931.91
2022-08-22T22:30:51.724Z,101922.22
2022-08-22T22:33:20.187Z,101924.00
2022-08-22T22:35:49.771Z,101933.59
2022-08-22T22:38:23.245Z,101937.09
2022-08-22T22:40:52.612Z,101937.19
2022-08-22T22:43:20.847Z,101928.44
2022-08-22T22:45:50.357Z,101937.38
2022-08-22T22:48:24.322Z,101929.47
2022-08-22T22:50:53.403Z,101938.28
2022-08-22T22:53:33.710Z,101946.34
2022-08-22T22:56:09.377Z,101946.34
2022-08-22T22:58:38.841Z,101948.06
2022-08-22T23:01:10.845Z,101946.41
2022-08-22T23:03:39.034Z,101951.72
2022-08-22T23:06:12.369Z,101942.09
2022-08-22T23:08:40.829Z,101948.22
2022-08-22T23:11:11.703Z,101951.78
2022-08-22T23:13:42.954Z,101951.66
2022-08-22T23:16:16.492Z,101951.69
2022-08-22T23:18:45.555Z,101929.63
2022-08-22T23:21:15.464Z,101948.19
2022-08-22T23:23:44.203Z,101948.19
2022-08-22T23:26:12.967Z,101960.50
2022-08-22T23:28:41.624Z,101957.84
2022-08-22T23:31:13.605Z,101960.41
2022-08-22T23:33:41.772Z,101963.97
2022-08-22T23:36:15.218Z,101949.78
2022-08-22T23:38:43.867Z,101962.19
2022-08-22T23:41:13.638Z,101959.41
2022-08-22T23:43:43.397Z,101963.88
2022-08-22T23:46:13.876Z,101962.19
2022-08-22T23:48:42.671Z,101963.94
2022-08-22T23:51:11.189Z,101963.97
2022-08-22T23:53:39.961Z,101962.22
2022-08-22T23:56:19.202Z,101963.16
2022-08-22T23:58:47.568Z,101960.50
